Time;durP1;ratioP1;P1;durP2;ratioP2;P2;SDS_P1;SDS_P2;PMS_P1;PMS_P2;Temp;Humidity;BMP_temperature;BMP_pressure;BME280_temperature;BME280_humidity;BME280_pressure;Samples;Min_cycle;Max_cycle;Signal;HPM_P1;HPM_P2
2021/08/15 00:02:14;;;;;;;17.33;15.63;;;18.20;99.90;;;;;;4953299;28;20489;-77
2021/08/15 00:04:39;;;;;;;20.02;16.92;;;18.10;99.90;;;;;;4954343;28;20027;-78
2021/08/15 00:07:06;;;;;;;25.02;19.40;;;18.00;99.90;;;;;;4968051;28;20114;-78
2021/08/15 00:09:32;;;;;;;25.02;20.38;;;18.00;99.90;;;;;;4953277;28;20027;-77
2021/08/15 00:11:57;;;;;;;31.95;23.27;;;18.00;99.90;;;;;;4952938;28;20532;-77
2021/08/15 00:14:23;;;;;;;26.30;19.38;;;17.90;99.90;;;;;;4952248;28;20023;-77
2021/08/15 00:16:48;;;;;;;23.35;20.52;;;17.90;99.90;;;;;;4967917;28;20409;-77
2021/08/15 00:19:14;;;;;;;22.60;18.52;;;17.90;99.90;;;;;;4953103;28;20389;-78
2021/08/15 00:21:40;;;;;;;24.40;19.85;;;17.90;99.90;;;;;;4953069;28;20031;-77
2021/08/15 00:24:06;;;;;;;24.65;18.67;;;17.90;99.90;;;;;;4964969;28;20046;-77
2021/08/15 00:26:32;;;;;;;24.80;18.38;;;17.80;99.90;;;;;;4971005;28;20396;-78
2021/08/15 00:28:59;;;;;;;21.13;17.45;;;17.80;99.90;;;;;;4970955;28;20023;-78
2021/08/15 00:31:27;;;;;;;20.05;17.35;;;17.80;99.90;;;;;;4970868;28;20471;-77
2021/08/15 00:33:56;;;;;;;25.63;19.70;;;17.80;99.90;;;;;;4970792;28;20057;-78
2021/08/15 00:36:22;;;;;;;22.92;19.17;;;17.80;99.90;;;;;;4971770;28;20027;-77
2021/08/15 00:38:48;;;;;;;21.90;17.95;;;17.80;99.90;;;;;;4972006;28;20404;-77
2021/08/15 00:41:13;;;;;;;20.02;17.20;;;17.70;99.90;;;;;;4970068;28;20090;-78
2021/08/15 00:43:40;;;;;;;20.77;18.17;;;17.70;99.90;;;;;;4984682;28;20439;-77
2021/08/15 00:46:10;;;;;;;22.35;17.38;;;17.70;99.90;;;;;;4970568;28;20023;-78
2021/08/15 00:48:35;;;;;;;20.98;18.83;;;17.60;99.90;;;;;;4986907;28;20076;-77
2021/08/15 00:51:01;;;;;;;20.77;17.52;;;17.60;99.90;;;;;;4970593;28;20019;-77
2021/08/15 00:53:29;;;;;;;22.35;17.67;;;17.40;99.90;;;;;;4986713;28;20037;-77
2021/08/15 00:55:59;;;;;;;18.17;16.25;;;17.40;99.90;;;;;;4971908;28;20544;-77
2021/08/15 00:58:31;;;;;;;20.20;18.02;;;17.40;99.90;;;;;;4986681;28;20023;-77
2021/08/15 01:01:01;;;;;;;20.95;17.73;;;17.40;99.90;;;;;;4971967;28;20022;-78
2021/08/15 01:03:28;;;;;;;21.17;16.92;;;17.30;99.90;;;;;;4975373;28;20014;-77
2021/08/15 01:05:54;;;;;;;23.48;20.13;;;17.30;99.90;;;;;;4970520;28;20041;-77
2021/08/15 01:08:20;;;;;;;24.35;19.63;;;17.30;99.90;;;;;;4971603;28;20053;-77
2021/08/15 01:10:45;;;;;;;23.40;18.48;;;17.30;99.90;;;;;;4970467;28;20437;-77
2021/08/15 01:13:11;;;;;;;23.77;19.52;;;17.30;99.90;;;;;;4966876;28;20065;-77
2021/08/15 01:15:38;;;;;;;18.58;16.67;;;17.30;99.90;;;;;;4970348;28;20118;-78
2021/08/15 01:18:37;;;;;;;20.02;16.98;;;17.30;99.90;;;;;;4966115;28;20027;-77
2021/08/15 01:21:03;;;;;;;22.15;17.88;;;17.20;99.90;;;;;;4929513;28;20039;-78
2021/08/15 01:23:29;;;;;;;19.85;17.85;;;17.20;99.90;;;;;;4952096;29;20443;-78
2021/08/15 01:25:55;;;;;;;21.02;17.55;;;17.20;99.90;;;;;;4952003;29;20046;-77
2021/08/15 01:28:22;;;;;;;22.40;17.67;;;17.10;99.90;;;;;;4966941;28;20057;-77
2021/08/15 01:30:48;;;;;;;23.45;19.08;;;17.10;99.90;;;;;;4952458;29;20532;-78
2021/08/15 01:33:32;;;;;;;24.98;20.48;;;17.10;99.90;;;;;;4966544;28;20099;-77
2021/08/15 01:36:00;;;;;;;32.55;22.55;;;17.10;99.90;;;;;;4971522;28;20031;-77
2021/08/15 01:38:28;;;;;;;31.63;23.33;;;17.10;99.90;;;;;;4971127;28;20069;-77
2021/08/15 01:40:56;;;;;;;26.45;22.92;;;17.10;99.90;;;;;;4970156;28;20015;-77
2021/08/15 01:43:22;;;;;;;29.63;22.40;;;17.00;99.90;;;;;;4968975;28;20031;-77
2021/08/15 01:45:48;;;;;;;25.95;20.75;;;17.00;99.90;;;;;;4969993;28;20023;-77
2021/08/15 01:48:14;;;;;;;23.70;19.45;;;17.00;99.90;;;;;;4955646;28;20097;-77
2021/08/15 01:50:40;;;;;;;23.17;19.38;;;17.00;99.90;;;;;;4951911;28;20038;-78
2021/08/15 01:53:10;;;;;;;22.58;19.35;;;16.90;99.90;;;;;;4950512;28;20475;-77
2021/08/15 01:55:38;;;;;;;27.92;20.48;;;16.90;99.90;;;;;;4966617;28;20039;-77
2021/08/15 01:58:04;;;;;;;29.98;21.23;;;16.90;99.90;;;;;;4966828;28;20031;-77
2021/08/15 02:00:30;;;;;;;27.33;20.48;;;16.80;99.90;;;;;;4950467;28;20452;-77
2021/08/15 02:02:55;;;;;;;15.63;13.50;;;16.80;99.90;;;;;;4967496;28;20504;-77
2021/08/15 02:05:21;;;;;;;18.52;16.02;;;16.80;99.90;;;;;;4950433;28;20077;-77
2021/08/15 02:07:47;;;;;;;22.90;18.70;;;16.70;99.90;;;;;;4951644;28;20437;-77
2021/08/15 02:10:13;;;;;;;18.58;16.48;;;16.60;99.90;;;;;;4950373;28;20027;-77
2021/08/15 02:12:39;;;;;;;18.27;16.33;;;16.60;99.90;;;;;;4963811;28;20385;-78
2021/08/15 02:15:05;;;;;;;18.50;15.15;;;16.60;99.90;;;;;;4978144;28;20027;-78
2021/08/15 02:17:31;;;;;;;14.23;12.80;;;16.50;99.90;;;;;;4969159;28;20027;-77
2021/08/15 02:19:57;;;;;;;16.83;15.25;;;16.40;99.90;;;;;;4970839;28;20365;-77
2021/08/15 02:22:22;;;;;;;16.35;14.75;;;16.40;99.90;;;;;;4958044;28;20397;-77
2021/08/15 02:24:48;;;;;;;22.75;16.15;;;16.40;99.90;;;;;;4951525;28;20074;-78
2021/08/15 02:27:14;;;;;;;20.88;16.98;;;16.30;99.90;;;;;;4951430;28;20058;-77
2021/08/15 02:29:39;;;;;;;33.60;24.55;;;16.30;99.90;;;;;;4951398;28;20057;-78
2021/08/15 02:32:05;;;;;;;45.75;29.13;;;16.30;99.90;;;;;;4951239;28;20044;-77
2021/08/15 02:34:31;;;;;;;51.65;31.30;;;16.30;99.90;;;;;;4981819;28;20507;-77
2021/08/15 02:36:56;;;;;;;45.47;29.40;;;16.30;99.90;;;;;;4969419;28;20019;-77
2021/08/15 02:39:22;;;;;;;35.45;26.52;;;16.30;99.90;;;;;;4973516;28;20366;-77
2021/08/15 02:41:48;;;;;;;28.58;23.08;;;16.40;99.90;;;;;;4971268;28;20058;-77
2021/08/15 02:44:13;;;;;;;30.77;23.25;;;16.40;99.90;;;;;;4985067;28;20026;-78
2021/08/15 02:46:39;;;;;;;29.05;22.40;;;16.40;99.90;;;;;;4988071;28;20141;-78
2021/08/15 02:49:05;;;;;;;29.25;22.98;;;16.40;99.90;;;;;;4970035;28;20050;-77
2021/08/15 02:51:31;;;;;;;34.80;23.13;;;16.40;99.90;;;;;;4988305;28;20414;-78
2021/08/15 02:53:58;;;;;;;24.13;19.42;;;16.50;99.90;;;;;;4973400;28;20023;-77
2021/08/15 02:56:23;;;;;;;25.05;19.95;;;16.40;99.90;;;;;;4972321;28;20495;-78
2021/08/15 02:58:49;;;;;;;26.15;18.98;;;16.40;99.90;;;;;;4988539;28;20114;-78
2021/08/15 03:01:14;;;;;;;19.98;17.70;;;16.30;99.90;;;;;;4988477;28;20026;-77
2021/08/15 03:03:40;;;;;;;18.17;16.15;;;16.30;99.90;;;;;;5057009;28;20026;-78
2021/08/15 03:06:06;;;;;;;17.65;14.73;;;16.30;99.90;;;;;;5057085;28;20031;-78
2021/08/15 03:08:31;;;;;;;15.98;13.77;;;16.30;99.90;;;;;;4985381;28;20042;-77
2021/08/15 03:10:57;;;;;;;11.50;10.43;;;16.20;99.90;;;;;;4954394;28;20476;-77
2021/08/15 03:13:23;;;;;;;14.25;12.75;;;16.20;99.90;;;;;;4971268;28;20042;-78
2021/08/15 03:15:48;;;;;;;19.00;16.00;;;16.10;99.90;;;;;;4972157;28;20124;-78
2021/08/15 03:18:17;;;;;;;30.02;22.67;;;16.10;99.90;;;;;;4973132;28;20093;-77
2021/08/15 03:20:46;;;;;;;32.20;21.55;;;16.20;99.90;;;;;;4988217;28;20018;-77
2021/08/15 03:23:12;;;;;;;34.10;22.45;;;16.20;99.90;;;;;;4973211;28;20023;-77
2021/08/15 03:25:38;;;;;;;27.95;22.90;;;16.20;99.90;;;;;;5043216;28;20081;-77
2021/08/15 03:28:05;;;;;;;28.30;21.77;;;16.20;99.90;;;;;;4968807;28;20031;-78
2021/08/15 03:30:31;;;;;;;24.30;21.58;;;16.30;99.90;;;;;;4953880;28;20055;-78
2021/08/15 03:32:56;;;;;;;27.63;21.40;;;16.30;99.90;;;;;;4952510;28;20066;-77
2021/08/15 03:35:22;;;;;;;18.80;15.60;;;16.30;99.90;;;;;;4968595;28;20023;-78
2021/08/15 03:37:48;;;;;;;16.25;14.27;;;16.20;99.90;;;;;;4968568;28;20089;-77
2021/08/15 03:40:14;;;;;;;19.65;16.63;;;16.20;99.90;;;;;;4968528;28;20031;-78
2021/08/15 03:42:39;;;;;;;19.95;17.35;;;16.10;99.90;;;;;;4977443;28;20133;-77
2021/08/15 03:45:07;;;;;;;19.45;17.52;;;16.10;99.90;;;;;;4987274;28;20544;-78
2021/08/15 03:47:33;;;;;;;19.70;15.13;;;16.10;99.90;;;;;;4987364;28;20073;-77
2021/08/15 03:50:08;;;;;;;23.55;18.90;;;16.10;99.90;;;;;;4968739;28;20054;-77
2021/08/15 03:52:41;;;;;;;26.70;21.02;;;16.20;99.90;;;;;;4987728;28;20042;-78
2021/08/15 03:55:10;;;;;;;29.42;22.27;;;16.20;99.90;;;;;;4987732;28;20035;-77
2021/08/15 03:57:37;;;;;;;24.45;21.42;;;16.30;99.90;;;;;;4983047;28;20031;-77
2021/08/15 04:00:04;;;;;;;24.83;20.27;;;16.30;99.90;;;;;;4972707;28;20477;-77
2021/08/15 04:02:30;;;;;;;21.48;18.52;;;16.30;99.90;;;;;;4971352;28;20023;-77
2021/08/15 04:04:56;;;;;;;20.60;17.08;;;16.40;99.90;;;;;;4972732;28;20023;-77
2021/08/15 04:07:21;;;;;;;19.80;16.30;;;16.40;99.90;;;;;;4972475;28;20469;-77
2021/08/15 04:09:47;;;;;;;19.15;17.17;;;16.60;99.90;;;;;;4960440;28;20140;-77
2021/08/15 04:12:13;;;;;;;19.27;17.10;;;16.50;99.90;;;;;;4959246;28;20527;-77
2021/08/15 04:14:38;;;;;;;21.70;19.35;;;16.50;99.90;;;;;;4987448;28;20022;-77
2021/08/15 04:17:04;;;;;;;18.95;17.08;;;16.60;99.90;;;;;;4972304;28;20027;-77
2021/08/15 04:19:30;;;;;;;21.20;18.95;;;16.60;99.90;;;;;;4971105;28;20515;-77
2021/08/15 04:21:55;;;;;;;21.58;19.17;;;16.60;99.90;;;;;;4971111;28;20030;-77
2021/08/15 04:24:21;;;;;;;24.55;18.63;;;16.70;99.90;;;;;;4972309;28;20034;-78
2021/08/15 04:26:47;;;;;;;25.30;19.35;;;16.60;99.90;;;;;;4972264;28;20031;-77
2021/08/15 04:29:13;;;;;;;24.20;19.10;;;16.70;99.90;;;;;;4970765;28;20085;-77
2021/08/15 04:31:42;;;;;;;22.98;17.92;;;16.70;99.90;;;;;;4970871;28;20062;-78
2021/08/15 04:34:08;;;;;;;21.35;18.75;;;16.80;99.90;;;;;;4972116;28;20034;-78
2021/08/15 04:36:33;;;;;;;18.77;16.77;;;16.80;99.90;;;;;;4972096;28;20037;-78
2021/08/15 04:38:59;;;;;;;26.90;20.85;;;16.90;99.90;;;;;;4970077;28;20035;-78
2021/08/15 04:41:24;;;;;;;31.10;23.33;;;17.00;99.90;;;;;;4968769;28;20027;-78
2021/08/15 04:43:50;;;;;;;28.50;23.30;;;17.20;99.90;;;;;;4970633;28;20104;-78
2021/08/15 04:46:16;;;;;;;29.00;22.63;;;17.30;99.90;;;;;;4971659;28;20469;-78
2021/08/15 04:48:42;;;;;;;29.40;22.08;;;17.50;99.90;;;;;;4971923;28;20023;-77
2021/08/15 04:51:08;;;;;;;25.67;19.75;;;17.60;99.90;;;;;;4986804;28;20055;-78
2021/08/15 04:53:33;;;;;;;24.80;20.88;;;17.70;99.90;;;;;;4985314;28;20126;-78
2021/08/15 04:55:59;;;;;;;28.13;20.33;;;17.70;99.90;;;;;;4952639;28;20107;-78
2021/08/15 04:58:25;;;;;;;30.60;21.88;;;17.80;99.90;;;;;;4951215;28;20033;-78
2021/08/15 05:00:50;;;;;;;124.50;71.60;;;17.90;99.90;;;;;;4952002;28;20027;-77
2021/08/15 05:03:17;;;;;;;189.70;106.15;;;18.00;99.90;;;;;;4952417;28;20066;-77
2021/08/15 05:05:44;;;;;;;127.45;79.15;;;18.10;99.90;;;;;;4951194;28;20034;-78
2021/08/15 05:08:10;;;;;;;71.13;46.83;;;18.20;99.90;;;;;;4952384;28;20023;-77
2021/08/15 05:10:36;;;;;;;59.05;38.67;;;18.30;99.90;;;;;;4980226;28;20054;-78
2021/08/15 05:13:02;;;;;;;45.38;30.45;;;18.40;99.90;;;;;;4974003;28;20058;-78
2021/08/15 05:15:28;;;;;;;45.70;31.00;;;18.50;99.90;;;;;;4970254;28;20038;-78
2021/08/15 05:17:54;;;;;;;37.45;27.50;;;18.70;99.90;;;;;;4951165;28;20023;-78
2021/08/15 05:20:20;;;;;;;34.65;26.52;;;18.80;99.90;;;;;;4967055;28;20031;-78
2021/08/15 05:22:46;;;;;;;42.70;30.55;;;18.90;99.90;;;;;;4952240;28;20031;-78
2021/08/15 05:25:12;;;;;;;55.55;40.45;;;19.00;99.90;;;;;;4966937;28;20023;-78
2021/08/15 05:27:38;;;;;;;51.10;37.83;;;19.20;99.90;;;;;;4966971;28;20027;-78
2021/08/15 05:30:04;;;;;;;53.25;36.38;;;19.40;99.90;;;;;;4950923;28;20031;-78
2021/08/15 05:32:30;;;;;;;50.60;34.83;;;19.50;99.90;;;;;;4966750;28;20032;-78
2021/08/15 05:34:56;;;;;;;60.72;38.83;;;19.70;99.90;;;;;;4950926;28;20438;-78
2021/08/15 05:37:22;;;;;;;81.38;48.85;;;19.80;99.90;;;;;;4950722;28;20410;-78
2021/08/15 05:39:47;;;;;;;57.90;37.60;;;19.90;99.90;;;;;;4956805;28;20037;-78
2021/08/15 05:42:13;;;;;;;51.80;33.42;;;20.00;99.90;;;;;;4969249;28;20019;-78
2021/08/15 05:44:38;;;;;;;55.70;36.17;;;20.20;99.90;;;;;;4986177;28;20076;-79
2021/08/15 05:47:04;;;;;;;53.67;35.63;;;20.40;99.90;;;;;;4969694;28;20023;-78
2021/08/15 05:49:31;;;;;;;48.88;34.63;;;20.50;99.90;;;;;;4971090;28;20031;-78
2021/08/15 05:51:57;;;;;;;40.08;28.75;;;20.80;99.90;;;;;;4985964;28;20042;-78
2021/08/15 05:54:23;;;;;;;37.08;27.60;;;21.00;99.90;;;;;;4969790;28;20484;-79
2021/08/15 05:56:48;;;;;;;35.03;28.15;;;21.10;99.90;;;;;;4969471;28;20027;-78
2021/08/15 05:59:14;;;;;;;34.95;26.42;;;21.30;99.90;;;;;;4970979;28;20109;-79
2021/08/15 06:01:39;;;;;;;41.25;27.50;;;21.60;99.90;;;;;;4971092;28;20076;-79
2021/08/15 06:04:05;;;;;;;35.10;25.42;;;21.70;99.90;;;;;;4969741;28;20361;-78
2021/08/15 06:06:31;;;;;;;31.90;24.70;;;21.90;99.90;;;;;;4953068;28;20487;-78
2021/08/15 06:08:56;;;;;;;33.28;23.70;;;22.10;99.90;;;;;;4966395;28;20626;-78
2021/08/15 06:11:22;;;;;;;31.55;22.92;;;22.30;99.90;;;;;;4968882;28;20031;-79
2021/08/15 06:13:48;;;;;;;27.33;20.73;;;22.40;99.90;;;;;;4954109;28;20071;-78
2021/08/15 06:16:15;;;;;;;26.63;20.80;;;22.60;99.90;;;;;;4953693;28;20023;-78
2021/08/15 06:18:40;;;;;;;26.77;21.52;;;22.80;99.90;;;;;;4969753;28;20027;-78
2021/08/15 06:21:06;;;;;;;28.58;21.70;;;23.00;99.90;;;;;;4954970;28;20106;-78
2021/08/15 06:23:32;;;;;;;26.77;19.88;;;23.10;99.90;;;;;;4954841;28;20051;-78
2021/08/15 06:25:58;;;;;;;25.40;22.02;;;23.20;99.90;;;;;;4975653;28;20027;-78
2021/08/15 06:28:24;;;;;;;27.83;20.17;;;23.40;99.90;;;;;;4974044;28;20564;-78
2021/08/15 06:30:50;;;;;;;22.90;18.23;;;23.50;99.90;;;;;;4974168;28;20106;-78
2021/08/15 06:33:15;;;;;;;30.45;19.88;;;23.60;99.90;;;;;;4973946;28;20199;-78
2021/08/15 06:35:41;;;;;;;23.88;17.85;;;23.80;99.90;;;;;;4973988;28;20027;-78
2021/08/15 06:38:07;;;;;;;27.45;18.13;;;23.90;99.90;;;;;;4972773;28;20065;-78
2021/08/15 06:40:32;;;;;;;20.60;15.82;;;24.10;99.90;;;;;;4961229;28;20039;-78
2021/08/15 06:43:09;;;;;;;23.90;15.50;;;24.20;99.90;;;;;;4969438;28;20118;-78
2021/08/15 06:45:37;;;;;;;22.23;15.18;;;24.40;99.90;;;;;;4969395;28;20024;-77
2021/08/15 06:48:03;;;;;;;18.70;14.82;;;24.50;99.90;;;;;;4954516;28;20043;-77
2021/08/15 06:50:29;;;;;;;21.70;15.73;;;24.70;99.90;;;;;;4958630;28;20523;-77
2021/08/15 06:52:55;;;;;;;19.98;15.20;;;24.80;99.90;;;;;;4954352;28;20039;-77
2021/08/15 06:55:20;;;;;;;20.85;15.70;;;24.90;99.90;;;;;;4960349;28;20031;-77
2021/08/15 06:57:46;;;;;;;24.30;15.82;;;25.00;99.90;;;;;;4967802;28;20522;-77
2021/08/15 07:00:13;;;;;;;26.40;16.40;;;25.10;99.90;;;;;;4968714;28;20031;-77
2021/08/15 07:02:40;;;;;;;22.98;15.73;;;25.30;99.90;;;;;;4969219;28;20023;-77
2021/08/15 07:05:08;;;;;;;18.52;14.48;;;25.40;99.90;;;;;;4957193;28;20085;-77
2021/08/15 07:07:34;;;;;;;24.38;17.00;;;25.60;99.90;;;;;;4968261;28;20500;-77
2021/08/15 07:09:59;;;;;;;20.05;14.70;;;25.70;99.90;;;;;;4956633;28;20028;-77
2021/08/15 07:12:25;;;;;;;20.95;15.82;;;25.80;99.90;;;;;;4956801;28;20043;-77
2021/08/15 07:14:51;;;;;;;19.05;14.32;;;26.10;99.90;;;;;;4966754;28;20069;-77
2021/08/15 07:17:16;;;;;;;16.48;14.77;;;26.00;99.90;;;;;;4963020;28;20038;-77
2021/08/15 07:19:42;;;;;;;17.85;14.45;;;26.20;99.90;;;;;;4970550;28;20527;-78
2021/08/15 07:22:08;;;;;;;18.90;13.98;;;26.20;99.90;;;;;;4981397;28;20028;-78
2021/08/15 07:24:34;;;;;;;17.65;13.70;;;26.40;99.90;;;;;;4952035;29;20026;-79
2021/08/15 07:26:59;;;;;;;15.18;13.68;;;26.50;98.70;;;;;;4954029;29;20031;-79
2021/08/15 07:29:25;;;;;;;17.23;13.95;;;26.60;98.90;;;;;;4952274;29;20174;-79
2021/08/15 07:31:52;;;;;;;15.18;13.57;;;26.70;93.80;;;;;;4981231;28;20031;-79
2021/08/15 07:34:17;;;;;;;17.15;13.93;;;26.90;93.20;;;;;;4972986;28;20023;-78
2021/08/15 07:36:43;;;;;;;16.50;13.27;;;27.10;96.90;;;;;;4971860;28;20037;-78
2021/08/15 07:39:08;;;;;;;14.13;12.05;;;27.10;92.60;;;;;;4972795;28;20031;-79
2021/08/15 07:41:34;;;;;;;16.30;13.48;;;27.20;89.90;;;;;;4970546;28;20019;-78
2021/08/15 07:44:00;;;;;;;16.17;12.23;;;27.30;90.80;;;;;;4971520;28;20030;-79
2021/08/15 07:46:27;;;;;;;14.18;12.00;;;27.40;91.00;;;;;;4971265;28;20074;-79
2021/08/15 07:48:53;;;;;;;17.90;12.07;;;27.60;93.80;;;;;;4972269;28;20027;-78
2021/08/15 07:51:19;;;;;;;14.15;12.25;;;27.70;88.00;;;;;;4972468;28;20027;-79
2021/08/15 07:53:44;;;;;;;12.82;10.82;;;27.90;89.80;;;;;;4972807;28;20049;-79
2021/08/15 07:56:10;;;;;;;15.10;10.85;;;27.90;80.20;;;;;;4971480;28;20046;-79
2021/08/15 07:58:36;;;;;;;12.30;10.35;;;28.10;83.60;;;;;;4971106;28;20054;-79
2021/08/15 08:01:02;;;;;;;11.00;9.93;;;28.10;76.00;;;;;;4971072;28;20074;-79
2021/08/15 08:03:27;;;;;;;12.63;10.50;;;28.20;77.10;;;;;;4971066;28;20042;-79
2021/08/15 08:05:53;;;;;;;15.75;10.07;;;28.20;75.80;;;;;;4967037;28;20027;-78
2021/08/15 08:08:19;;;;;;;12.32;11.05;;;28.20;75.50;;;;;;4972515;28;20015;-79
2021/08/15 08:10:47;;;;;;;14.32;11.30;;;28.20;75.10;;;;;;4960376;28;20020;-79
2021/08/15 08:13:13;;;;;;;11.70;10.50;;;28.10;79.00;;;;;;4971595;28;20034;-79
2021/08/15 08:15:39;;;;;;;12.45;9.85;;;28.10;78.40;;;;;;4972437;28;20106;-79
2021/08/15 08:18:07;;;;;;;12.95;10.73;;;28.30;77.70;;;;;;4970870;28;20022;-79
2021/08/15 08:20:35;;;;;;;11.55;10.30;;;28.40;74.70;;;;;;4987337;28;20388;-79
2021/08/15 08:23:05;;;;;;;10.52;9.38;;;28.50;72.30;;;;;;4967204;28;20035;-79
2021/08/15 08:25:31;;;;;;;15.20;10.93;;;28.70;71.30;;;;;;4953066;28;20035;-79
2021/08/15 08:27:57;;;;;;;11.32;10.13;;;28.80;72.00;;;;;;4951823;28;20028;-79
2021/08/15 08:30:22;;;;;;;12.43;10.65;;;28.90;71.10;;;;;;4959492;28;20054;-79
2021/08/15 08:32:48;;;;;;;14.35;10.23;;;29.00;71.20;;;;;;4971898;28;20042;-79
2021/08/15 08:35:14;;;;;;;9.60;8.68;;;29.10;69.10;;;;;;4971364;28;20023;-79
2021/08/15 08:37:39;;;;;;;13.00;8.93;;;29.10;66.10;;;;;;4972128;28;20446;-79
2021/08/15 08:40:06;;;;;;;11.57;10.07;;;29.20;65.50;;;;;;4970986;28;20027;-79
2021/08/15 08:42:32;;;;;;;12.93;8.70;;;29.30;67.80;;;;;;4970756;28;20015;-79
2021/08/15 08:45:03;;;;;;;13.35;9.23;;;29.30;67.60;;;;;;4970620;28;20420;-79
2021/08/15 08:47:30;;;;;;;10.15;7.93;;;29.40;63.30;;;;;;4971910;28;20035;-79
2021/08/15 08:49:57;;;;;;;9.85;8.18;;;29.50;63.20;;;;;;4971731;28;20038;-79
2021/08/15 08:52:31;;;;;;;8.70;7.80;;;29.60;61.30;;;;;;4971711;28;20035;-79
2021/08/15 08:54:58;;;;;;;12.45;8.02;;;29.60;61.40;;;;;;4971983;28;20069;-79
2021/08/15 08:57:24;;;;;;;12.25;7.53;;;29.60;61.20;;;;;;4969275;28;20031;-79
2021/08/15 08:59:50;;;;;;;10.77;8.20;;;29.60;60.00;;;;;;4986249;28;20022;-79
2021/08/15 09:02:16;;;;;;;8.82;7.78;;;29.60;60.80;;;;;;4971377;28;20019;-79
2021/08/15 09:04:42;;;;;;;10.88;7.63;;;29.60;61.60;;;;;;4983793;28;20023;-79
2021/08/15 09:07:10;;;;;;;12.80;7.20;;;29.70;60.90;;;;;;4971322;28;20144;-79
2021/08/15 09:09:38;;;;;;;10.55;7.60;;;29.50;61.10;;;;;;4971121;28;20023;-79
2021/08/15 09:12:05;;;;;;;8.68;7.78;;;29.30;61.90;;;;;;4971197;28;20078;-79
2021/08/15 09:14:32;;;;;;;9.80;6.32;;;29.40;59.50;;;;;;4965672;28;20058;-79
2021/08/15 09:17:04;;;;;;;9.07;7.65;;;29.50;58.80;;;;;;4970983;28;20023;-79
2021/08/15 09:19:33;;;;;;;;;;;29.70;59.10;;;;;;4970922;28;20019;-79
2021/08/15 09:22:25;;;;;;;9.27;8.38;;;29.70;59.90;;;;;;4985907;28;20438;-79
2021/08/15 09:25:03;;;;;;;10.80;7.82;;;30.10;63.90;;;;;;4971651;28;20061;-79
2021/08/15 09:27:31;;;;;;;10.52;7.82;;;29.80;57.70;;;;;;4970019;28;20415;-79
2021/08/15 09:30:22;;;;;;;12.55;8.13;;;29.70;58.30;;;;;;4971206;28;20110;-79
2021/08/15 09:32:56;;;;;;;9.05;8.15;;;29.60;62.50;;;;;;4977837;28;20405;-79
2021/08/15 09:35:41;;;;;;;11.40;8.63;;;29.50;62.10;;;;;;4969991;28;20018;-79
2021/08/15 09:38:17;;;;;;;11.23;8.30;;;29.40;61.80;;;;;;4969880;28;20110;-79
2021/08/15 09:40:47;;;;;;;14.77;9.05;;;29.20;63.80;;;;;;4970069;28;20541;-79
2021/08/15 09:43:28;;;;;;;9.75;7.80;;;29.20;60.90;;;;;;4969428;28;20058;-79
2021/08/15 09:46:01;;;;;;;11.70;8.85;;;29.20;62.90;;;;;;4968672;28;20034;-79
2021/08/15 09:48:37;;;;;;;8.68;7.88;;;29.40;61.20;;;;;;4972820;28;20046;-79
2021/08/15 09:51:16;;;;;;;10.40;8.93;;;29.60;62.90;;;;;;4974041;28;20015;-79
2021/08/15 09:53:55;;;;;;;16.33;9.23;;;29.60;61.30;;;;;;4973295;28;20507;-79
2021/08/15 09:56:38;;;;;;;10.15;9.10;;;29.70;62.90;;;;;;4989556;28;20419;-79
2021/08/15 09:59:13;;;;;;;9.35;8.30;;;29.80;64.60;;;;;;4987006;28;20031;-79
2021/08/15 10:01:44;;;;;;;9.43;8.52;;;29.50;65.80;;;;;;4989399;28;20042;-79
2021/08/15 10:04:11;;;;;;;9.88;8.73;;;29.60;64.10;;;;;;4974342;28;20065;-79
2021/08/15 10:06:39;;;;;;;11.02;8.60;;;29.70;64.50;;;;;;4971555;28;20050;-79
2021/08/15 10:09:05;;;;;;;10.38;9.23;;;29.80;60.20;;;;;;4974319;28;20047;-79
2021/08/15 10:11:32;;;;;;;9.02;8.10;;;29.80;61.60;;;;;;4973459;28;20058;-79
2021/08/15 10:14:06;;;;;;;8.25;7.30;;;30.00;61.70;;;;;;4972117;28;20496;-79
2021/08/15 10:16:50;;;;;;;9.43;7.60;;;30.00;55.10;;;;;;4974291;28;20019;-79
2021/08/15 10:19:19;;;;;;;9.70;8.55;;;30.00;54.30;;;;;;4962339;28;20038;-79
2021/08/15 10:21:47;;;;;;;10.55;9.35;;;30.00;56.20;;;;;;4964189;28;20047;-79
2021/08/15 10:24:15;;;;;;;9.07;8.18;;;30.10;56.80;;;;;;4974026;28;20030;-79
2021/08/15 10:26:49;;;;;;;12.80;9.20;;;30.20;57.30;;;;;;4958949;28;20035;-79
2021/08/15 10:29:33;;;;;;;11.68;8.85;;;30.30;58.80;;;;;;4968599;28;20081;-79
2021/08/15 10:32:05;;;;;;;13.93;9.18;;;30.30;61.50;;;;;;4954581;28;20039;-79
2021/08/15 10:35:03;;;;;;;;;;;30.40;60.60;;;;;;4954239;28;20106;-79
2021/08/15 10:37:32;;;;;;;12.88;9.93;;;30.50;57.80;;;;;;4958163;28;19911;-79
2021/08/15 10:40:03;;;;;;;11.52;9.25;;;30.40;54.70;;;;;;4953514;28;20039;-79
2021/08/15 10:42:37;;;;;;;15.82;9.35;;;30.40;54.00;;;;;;4953049;28;20389;-79
2021/08/15 10:45:07;;;;;;;17.50;10.20;;;30.40;55.60;;;;;;4970374;28;20480;-79
2021/08/15 10:47:33;;;;;;;13.98;9.73;;;30.40;55.00;;;;;;4972311;28;20053;-79
2021/08/15 10:50:03;;;;;;;12.55;10.40;;;30.60;53.90;;;;;;4973231;28;20488;-79
2021/08/15 10:52:39;;;;;;;12.90;10.32;;;30.70;56.20;;;;;;4973497;28;20455;-79
2021/08/15 10:55:07;;;;;;;11.88;10.50;;;30.60;55.20;;;;;;4972585;28;20027;-77
2021/08/15 10:57:40;;;;;;;20.05;10.70;;;30.60;54.70;;;;;;4970886;28;20438;-77
2021/08/15 11:00:29;;;;;;;12.27;10.55;;;30.70;56.70;;;;;;4973092;28;20031;-77
2021/08/15 11:02:59;;;;;;;13.05;10.48;;;30.70;55.30;;;;;;4973070;28;20088;-77
2021/08/15 11:05:35;;;;;;;15.07;10.50;;;30.40;53.20;;;;;;4987273;28;20110;-77
2021/08/15 11:08:02;;;;;;;12.52;10.10;;;30.40;55.00;;;;;;4986587;28;20014;-76
2021/08/15 11:11:06;;;;;;;17.15;11.15;;;30.20;58.70;;;;;;4986955;28;20423;-76
2021/08/15 11:13:33;;;;;;;14.00;11.30;;;29.90;58.80;;;;;;4969413;28;20047;-76
2021/08/15 11:16:27;;;;;;;16.35;10.82;;;30.00;61.20;;;;;;4970854;28;20031;-76
2021/08/15 11:19:07;;;;;;;16.05;9.88;;;30.10;60.00;;;;;;4970554;28;20030;-77
2021/08/15 11:22:10;;;;;;;13.68;9.85;;;29.80;56.40;;;;;;4996081;28;20058;-77
2021/08/15 11:24:42;;;;;;;13.80;9.32;;;29.80;57.40;;;;;;4982490;28;20022;-77
2021/08/15 11:27:10;;;;;;;13.23;9.20;;;29.70;58.30;;;;;;4987569;28;20042;-76
2021/08/15 11:29:37;;;;;;;9.23;8.25;;;29.80;57.50;;;;;;4972651;28;20023;-76
2021/08/15 11:32:03;;;;;;;11.15;8.07;;;29.90;58.00;;;;;;4972171;28;20109;-77
2021/08/15 11:34:29;;;;;;;12.00;8.40;;;29.80;54.00;;;;;;4987150;28;20053;-77
2021/08/15 11:36:56;;;;;;;9.60;8.55;;;29.80;54.90;;;;;;4970559;28;20422;-76
2021/08/15 11:39:42;;;;;;;9.32;8.25;;;29.60;54.00;;;;;;4972519;28;20087;-76
2021/08/15 11:42:18;;;;;;;8.82;7.93;;;29.70;54.50;;;;;;4970435;28;20015;-76
2021/08/15 11:44:51;;;;;;;8.18;7.47;;;29.70;54.40;;;;;;4983616;28;20054;-77
2021/08/15 11:47:27;;;;;;;9.90;8.90;;;29.60;54.10;;;;;;4971259;28;20019;-77
2021/08/15 11:49:55;;;;;;;10.63;7.85;;;29.60;52.80;;;;;;4969474;28;20015;-76
2021/08/15 11:52:22;;;;;;;10.80;8.45;;;29.50;52.80;;;;;;4987087;28;20031;-77
2021/08/15 11:54:50;;;;;;;9.85;8.82;;;29.60;52.00;;;;;;4985333;28;20019;-77
2021/08/15 11:57:15;;;;;;;10.90;8.63;;;29.80;52.50;;;;;;4972214;28;20026;-76
2021/08/15 11:59:44;;;;;;;8.82;7.93;;;29.60;52.40;;;;;;4972129;28;20106;-76
2021/08/15 12:02:15;;;;;;;9.65;8.70;;;29.50;53.70;;;;;;4972138;28;20079;-79
2021/08/15 12:04:43;;;;;;;9.43;8.30;;;29.50;54.40;;;;;;4968943;28;20030;-79
2021/08/15 12:07:09;;;;;;;8.50;7.70;;;29.50;54.70;;;;;;4972080;28;20052;-79
2021/08/15 12:09:34;;;;;;;9.55;8.55;;;29.80;55.00;;;;;;4970673;28;20034;-78
2021/08/15 12:12:04;;;;;;;9.25;8.43;;;29.70;52.30;;;;;;4971704;28;20438;-79
2021/08/15 12:14:37;;;;;;;11.88;8.57;;;29.80;53.30;;;;;;4971078;28;20019;-79
2021/08/15 12:17:03;;;;;;;10.95;8.40;;;29.90;54.10;;;;;;4969258;28;20019;-79
2021/08/15 12:19:32;;;;;;;8.77;7.43;;;29.90;52.90;;;;;;4952994;28;20023;-79
2021/08/15 12:22:00;;;;;;;9.15;8.35;;;29.80;51.60;;;;;;4967761;28;20059;-79
2021/08/15 12:24:28;;;;;;;9.30;7.60;;;29.80;52.90;;;;;;4975831;28;20428;-79
2021/08/15 12:26:57;;;;;;;7.70;7.03;;;30.00;53.60;;;;;;4972232;28;20034;-79
2021/08/15 12:29:26;;;;;;;9.45;7.53;;;30.10;53.30;;;;;;4972086;28;20481;-79
2021/08/15 12:32:04;;;;;;;8.45;7.32;;;30.20;51.20;;;;;;4972110;28;20062;-79
2021/08/15 12:34:30;;;;;;;8.43;6.80;;;30.10;51.80;;;;;;4981084;28;20077;-79
2021/08/15 12:36:58;;;;;;;7.45;6.70;;;30.10;50.90;;;;;;4958569;28;20037;-79